createdAt,value
2022-08-28T00:00:31.244Z,11.73
2022-08-28T00:02:59.195Z,11.68
2022-08-28T00:05:29.870Z,15.65
2022-08-28T00:07:58.792Z,13.05
2022-08-28T00:10:27.862Z,14.48
2022-08-28T00:12:58.208Z,12.20
2022-08-28T00:15:33.576Z,15.25
2022-08-28T00:18:02.229Z,14.30
2022-08-28T00:20:30.881Z,12.77
2022-08-28T00:22:59.656Z,14.07
2022-08-28T00:25:29.837Z,11.07
2022-08-28T00:28:00.859Z,13.98
2022-08-28T00:30:35.243Z,12.90
2022-08-28T00:33:09.421Z,15.02
2022-08-28T00:35:41.071Z,9.45
2022-08-28T00:38:11.069Z,12.52
2022-08-28T00:40:41.172Z,12.90
2022-08-28T00:43:11.076Z,20.60
2022-08-28T00:45:40.035Z,15.02
2022-08-28T00:48:08.271Z,12.40
2022-08-28T00:51:12.048Z,12.00
2022-08-28T00:53:39.509Z,11.50
2022-08-28T00:56:13.065Z,10.75
2022-08-28T00:58:44.341Z,16.15
2022-08-28T01:01:13.102Z,14.07
2022-08-28T01:03:41.691Z,17.05
2022-08-28T01:06:09.698Z,15.90
2022-08-28T01:08:40.896Z,12.73
2022-08-28T01:11:09.155Z,12.90
2022-08-28T01:13:40.287Z,13.15
2022-08-28T01:16:08.930Z,15.77
2022-08-28T01:18:36.333Z,20.30
2022-08-28T01:21:12.722Z,13.05
2022-08-28T01:23:58.143Z,12.65
2022-08-28T01:26:29.842Z,14.45
2022-08-28T01:29:00.953Z,14.35
2022-08-28T01:31:31.784Z,12.20
2022-08-28T01:33:59.599Z,11.70
2022-08-28T01:36:29.224Z,15.00
2022-08-28T01:39:19.259Z,10.18
2022-08-28T01:41:51.876Z,18.30
2022-08-28T01:44:24.842Z,11.98
2022-08-28T01:46:58.304Z,11.65
2022-08-28T01:49:29.344Z,10.63
2022-08-28T01:51:58.197Z,15.00
2022-08-28T01:54:28.871Z,11.95
2022-08-28T01:56:56.462Z,15.63
2022-08-28T01:59:24.220Z,12.40
2022-08-28T02:01:51.468Z,11.68
2022-08-28T02:04:18.845Z,12.85
2022-08-28T02:06:47.890Z,11.73
2022-08-28T02:09:15.155Z,14.68
2022-08-28T02:11:46.571Z,13.07
2022-08-28T02:14:15.122Z,14.32
2022-08-28T02:16:42.538Z,15.48
2022-08-28T02:19:10.088Z,23.80
2022-08-28T02:21:37.279Z,15.70
2022-08-28T02:24:05.057Z,15.15
2022-08-28T02:26:32.529Z,17.95
2022-08-28T02:28:59.987Z,26.48
2022-08-28T02:31:28.039Z,14.68
2022-08-28T02:33:55.976Z,15.93
2022-08-28T02:36:24.118Z,12.05
2022-08-28T02:38:57.369Z,13.05
2022-08-28T02:41:25.857Z,13.32
2022-08-28T02:43:53.352Z,20.65
2022-08-28T02:46:20.683Z,18.33
2022-08-28T02:48:47.965Z,18.50
2022-08-28T02:51:15.594Z,16.33
2022-08-28T02:53:43.282Z,14.20
2022-08-28T02:56:11.930Z,20.98
2022-08-28T02:58:40.780Z,16.75
2022-08-28T03:01:11.478Z,12.13
2022-08-28T03:03:40.820Z,16.30
2022-08-28T03:06:12.633Z,14.13
2022-08-28T03:08:42.294Z,16.60
2022-08-28T03:11:09.771Z,13.40
2022-08-28T03:13:37.178Z,18.83
2022-08-28T03:16:05.536Z,15.75
2022-08-28T03:18:33.308Z,14.85
2022-08-28T03:21:01.420Z,12.27
2022-08-28T03:23:28.940Z,16.48
2022-08-28T03:26:16.918Z,15.52
2022-08-28T03:28:49.711Z,13.65
2022-08-28T03:31:22.210Z,13.73
2022-08-28T03:33:50.783Z,13.30
2022-08-28T03:36:23.342Z,12.77
2022-08-28T03:38:53.580Z,15.52
2022-08-28T03:41:23.375Z,12.80
2022-08-28T03:43:51.382Z,12.63
2022-08-28T03:46:24.200Z,15.70
2022-08-28T03:48:53.347Z,13.23
2022-08-28T03:51:29.179Z,17.00
2022-08-28T03:53:58.910Z,11.50
2022-08-28T03:56:28.864Z,12.85
2022-08-28T03:59:00.661Z,20.27
2022-08-28T04:01:28.556Z,13.27
2022-08-28T04:03:56.556Z,17.02
2022-08-28T04:06:24.311Z,15.82
2022-08-28T04:08:51.733Z,14.55
2022-08-28T04:11:19.123Z,14.13
2022-08-28T04:13:46.475Z,15.77
2022-08-28T04:16:19.194Z,19.67
2022-08-28T04:18:50.075Z,16.95
2022-08-28T04:21:23.590Z,13.40
2022-08-28T04:23:51.355Z,16.23
2022-08-28T04:26:25.225Z,12.23
2022-08-28T04:28:55.068Z,12.32
2022-08-28T04:31:32.222Z,15.73
2022-08-28T04:34:06.339Z,11.73
2022-08-28T04:36:34.365Z,11.02
2022-08-28T04:39:06.038Z,15.57
2022-08-28T04:41:33.466Z,12.52
2022-08-28T04:44:00.761Z,9.85
2022-08-28T04:46:30.997Z,12.88
2022-08-28T04:48:59.579Z,10.88
2022-08-28T04:51:27.294Z,11.32
2022-08-28T04:53:54.710Z,11.98
2022-08-28T04:56:22.314Z,10.07
2022-08-28T04:58:49.946Z,14.93
2022-08-28T05:01:24.719Z,10.82
2022-08-28T05:03:59.335Z,11.68
2022-08-28T05:06:28.880Z,11.93
2022-08-28T05:08:59.401Z,11.23
2022-08-28T05:11:34.408Z,21.80
2022-08-28T05:14:12.687Z,12.25
2022-08-28T05:16:47.789Z,12.57
2022-08-28T05:19:18.344Z,14.15
2022-08-28T05:21:45.762Z,12.95
2022-08-28T05:24:13.995Z,11.88
2022-08-28T05:26:42.155Z,10.55
2022-08-28T05:29:11.459Z,12.93
2022-08-28T05:31:41.752Z,12.60
2022-08-28T05:34:10.549Z,10.93
2022-08-28T05:36:39.575Z,9.75
2022-08-28T05:39:10.911Z,14.73
2022-08-28T05:41:42.914Z,10.73
2022-08-28T05:44:13.355Z,9.55
2022-08-28T05:46:44.603Z,11.73
2022-08-28T05:49:13.542Z,9.68
2022-08-28T05:51:43.005Z,10.95
2022-08-28T05:54:11.306Z,8.18
2022-08-28T05:56:40.818Z,8.88
2022-08-28T05:59:10.133Z,8.75
2022-08-28T06:01:45.940Z,7.72
2022-08-28T06:04:25.527Z,11.45
2022-08-28T06:06:54.059Z,11.35
2022-08-28T06:09:29.748Z,12.02
2022-08-28T06:12:01.831Z,12.73
2022-08-28T06:14:31.264Z,15.02
2022-08-28T06:17:00.041Z,9.90
2022-08-28T06:19:30.283Z,13.18
2022-08-28T06:22:00.942Z,10.65
2022-08-28T06:24:34.910Z,15.65
2022-08-28T06:27:02.251Z,10.57
2022-08-28T06:29:30.388Z,10.32
2022-08-28T06:32:04.839Z,8.55
2022-08-28T06:34:32.554Z,10.90
2022-08-28T06:37:00.749Z,11.50
2022-08-28T06:39:28.198Z,10.77
2022-08-28T06:41:55.566Z,7.05
2022-08-28T06:44:23.364Z,8.32
2022-08-28T06:46:54.529Z,11.00
2022-08-28T06:49:22.820Z,10.57
2022-08-28T06:51:51.218Z,10.57
2022-08-28T06:54:22.761Z,12.52
2022-08-28T06:56:52.342Z,10.10
2022-08-28T06:59:19.870Z,12.57
2022-08-28T07:01:47.579Z,12.35
2022-08-28T07:04:15.047Z,13.25
2022-08-28T07:06:53.715Z,10.63
2022-08-28T07:09:22.214Z,11.60
2022-08-28T07:11:49.655Z,11.35
2022-08-28T07:14:17.285Z,10.27
2022-08-28T07:16:44.637Z,14.75
2022-08-28T07:19:13.885Z,13.52
2022-08-28T07:21:45.800Z,14.17
2022-08-28T07:24:15.508Z,13.93
2022-08-28T07:26:44.672Z,11.57
2022-08-28T07:29:12.615Z,10.33
2022-08-28T07:31:46.628Z,10.18
2022-08-28T07:34:15.650Z,13.50
2022-08-28T07:36:43.478Z,13.80
2022-08-28T07:39:14.052Z,13.57
2022-08-28T07:41:42.992Z,16.15
2022-08-28T07:44:33.929Z,10.30
2022-08-28T07:47:05.846Z,13.65
2022-08-28T07:49:34.897Z,11.55
2022-08-28T07:52:04.118Z,17.45
2022-08-28T07:54:31.631Z,14.33
2022-08-28T07:56:59.164Z,12.50
2022-08-28T07:59:26.511Z,14.30
2022-08-28T08:01:54.223Z,12.48
2022-08-28T08:04:24.285Z,15.63
2022-08-28T08:06:57.841Z,18.10
2022-08-28T08:09:26.239Z,12.27
2022-08-28T08:11:55.172Z,14.77
2022-08-28T08:14:23.286Z,15.60
2022-08-28T08:16:52.462Z,14.48
2022-08-28T08:19:20.669Z,14.88
2022-08-28T08:21:55.185Z,20.58
2022-08-28T08:24:28.555Z,14.80
2022-08-28T08:27:00.915Z,19.77
2022-08-28T08:29:35.975Z,13.77
2022-08-28T08:32:08.603Z,20.63
2022-08-28T08:34:42.976Z,16.85
2022-08-28T08:37:12.766Z,17.65
2022-08-28T08:39:42.600Z,17.70
2022-08-28T08:42:30.826Z,23.92
2022-08-28T08:45:04.374Z,19.25
2022-08-28T08:47:54.081Z,19.25
2022-08-28T08:50:25.719Z,19.25
2022-08-28T08:53:40.748Z,17.50
2022-08-28T08:56:12.636Z,18.02
2022-08-28T08:58:52.352Z,15.95
2022-08-28T09:01:53.383Z,17.27
2022-08-28T09:04:29.372Z,15.82
2022-08-28T09:07:10.363Z,13.57
2022-08-28T09:09:47.112Z,14.13
2022-08-28T09:12:23.153Z,16.63
2022-08-28T09:15:09.755Z,18.00
2022-08-28T09:17:49.140Z,18.55
2022-08-28T09:20:33.094Z,16.52
2022-08-28T09:23:01.960Z,15.57
2022-08-28T09:25:44.666Z,16.93
2022-08-28T09:28:31.552Z,17.70
2022-08-28T09:31:06.612Z,15.65
2022-08-28T09:33:42.197Z,15.02
2022-08-28T09:36:32.216Z,14.70
2022-08-28T09:39:19.439Z,15.15
2022-08-28T09:42:26.221Z,18.40
2022-08-28T09:45:15.112Z,14.75
2022-08-28T09:47:55.901Z,12.03
2022-08-28T09:50:44.607Z,13.35
2022-08-28T09:53:11.845Z,12.90
2022-08-28T09:56:11.755Z,14.02
2022-08-28T09:58:49.828Z,14.07
2022-08-28T10:01:44.568Z,13.02
2022-08-28T10:04:28.672Z,16.50
2022-08-28T10:07:29.237Z,14.15
2022-08-28T10:10:21.182Z,12.13
2022-08-28T10:13:30.241Z,15.60
2022-08-28T10:16:26.298Z,12.93
2022-08-28T10:19:19.658Z,12.80
2022-08-28T10:22:28.750Z,14.13
2022-08-28T10:25:10.796Z,15.82
2022-08-28T10:28:05.775Z,12.23
2022-08-28T10:30:44.780Z,21.00
2022-08-28T10:33:39.967Z,12.35
2022-08-28T10:36:34.689Z,12.23
2022-08-28T10:39:57.835Z,12.43
2022-08-28T10:42:48.305Z,11.63
2022-08-28T10:45:26.212Z,14.27
2022-08-28T10:48:05.156Z,12.88
2022-08-28T10:50:57.173Z,17.38
2022-08-28T10:53:46.281Z,14.40
2022-08-28T10:56:25.579Z,13.00
2022-08-28T10:58:59.341Z,13.50
2022-08-28T11:01:33.046Z,16.15
2022-08-28T11:04:25.596Z,12.82
2022-08-28T11:06:59.891Z,10.68
2022-08-28T11:09:43.407Z,14.02
2022-08-28T11:12:16.402Z,12.63
2022-08-28T11:14:47.935Z,12.50
2022-08-28T11:17:27.959Z,13.02
2022-08-28T11:20:17.891Z,12.25
2022-08-28T11:23:10.525Z,12.32
2022-08-28T11:26:00.393Z,11.40
2022-08-28T11:28:36.899Z,9.23
2022-08-28T11:31:04.232Z,11.80
2022-08-28T11:33:39.531Z,17.85
2022-08-28T11:36:30.165Z,11.02
2022-08-28T11:38:57.879Z,17.23
2022-08-28T11:41:32.761Z,16.10
2022-08-28T11:44:14.978Z,13.25
2022-08-28T11:46:45.010Z,15.00
2022-08-28T11:52:11.932Z,14.38
2022-08-28T11:55:09.810Z,10.48
2022-08-28T11:58:30.294Z,13.88
2022-08-28T12:01:08.468Z,11.32
2022-08-28T12:03:43.169Z,13.20
2022-08-28T12:06:13.377Z,12.68
2022-08-28T12:08:51.369Z,14.13
2022-08-28T12:11:41.785Z,14.95
2022-08-28T12:14:28.366Z,12.98
2022-08-28T12:21:12.740Z,11.65
2022-08-28T12:23:45.132Z,13.32
2022-08-28T12:26:39.993Z,12.98
2022-08-28T12:29:29.030Z,10.10
2022-08-28T12:32:24.805Z,9.30
2022-08-28T12:34:57.902Z,8.52
2022-08-28T12:37:52.595Z,7.60
2022-08-28T12:40:53.540Z,6.00
2022-08-28T12:46:33.168Z,7.20
2022-08-28T12:49:03.984Z,12.88
2022-08-28T12:51:37.968Z,11.40
2022-08-28T12:54:08.866Z,7.65
2022-08-28T12:56:39.328Z,10.43
2022-08-28T12:59:41.727Z,17.85
2022-08-28T13:02:18.831Z,11.18
2022-08-28T13:05:01.891Z,8.27
2022-08-28T13:07:36.049Z,7.25
2022-08-28T13:10:29.905Z,11.15
2022-08-28T13:13:05.582Z,6.93
2022-08-28T13:15:52.213Z,6.55
2022-08-28T13:18:44.669Z,9.48
2022-08-28T13:21:33.994Z,7.32
2022-08-28T13:24:23.673Z,8.25
2022-08-28T13:27:09.019Z,8.45
2022-08-28T13:29:37.563Z,7.43
2022-08-28T13:32:15.537Z,7.90
2022-08-28T13:35:02.048Z,9.32
2022-08-28T13:37:52.196Z,10.13
2022-08-28T13:40:56.489Z,4.22
2022-08-28T13:43:19.806Z,7.57
2022-08-28T13:45:49.705Z,5.85
2022-08-28T13:48:24.150Z,11.80
2022-08-28T13:51:10.642Z,10.43
2022-08-28T13:53:39.501Z,14.27
2022-08-28T13:56:07.271Z,9.10
2022-08-28T13:58:35.151Z,7.03
2022-08-28T14:01:04.874Z,12.45
2022-08-28T14:03:36.449Z,8.63
2022-08-28T14:06:14.567Z,9.60
2022-08-28T14:08:44.038Z,9.63
2022-08-28T14:11:13.385Z,10.73
2022-08-28T14:13:47.029Z,8.13
2022-08-28T14:16:27.049Z,7.90
2022-08-28T14:18:54.497Z,9.25
2022-08-28T14:21:24.738Z,8.45
2022-08-28T14:23:52.263Z,10.50
2022-08-28T14:26:19.630Z,7.95
2022-08-28T14:28:47.337Z,8.60
2022-08-28T14:31:15.028Z,13.55
2022-08-28T14:33:45.373Z,13.45
2022-08-28T14:36:23.355Z,8.85
2022-08-28T14:38:54.300Z,11.98
2022-08-28T14:41:23.569Z,8.50
2022-08-28T14:43:52.458Z,8.90
2022-08-28T14:46:28.670Z,13.15
2022-08-28T14:49:09.057Z,17.58
2022-08-28T14:51:39.372Z,17.60
2022-08-28T14:56:35.742Z,20.25
2022-08-28T14:59:06.266Z,16.17
2022-08-28T15:01:40.927Z,12.85
2022-08-28T15:04:13.043Z,18.13
2022-08-28T15:06:42.609Z,17.52
2022-08-28T15:09:12.830Z,13.43
2022-08-28T15:14:08.790Z,14.75
2022-08-28T15:16:42.793Z,14.85
2022-08-28T15:19:12.506Z,18.90
2022-08-28T15:21:46.336Z,15.30
2022-08-28T15:24:16.454Z,14.13
2022-08-28T15:26:44.157Z,15.23
2022-08-28T15:29:12.166Z,16.50
2022-08-28T15:31:44.529Z,15.52
2022-08-28T15:34:25.895Z,14.60
2022-08-28T15:36:55.495Z,14.38
2022-08-28T15:42:15.138Z,13.45
2022-08-28T15:44:42.959Z,15.23
2022-08-28T15:47:12.667Z,13.93
2022-08-28T15:49:48.551Z,15.52
2022-08-28T15:52:19.364Z,15.95
2022-08-28T15:54:48.173Z,16.65
2022-08-28T15:57:15.986Z,15.48
2022-08-28T15:59:49.589Z,14.00
2022-08-28T16:02:23.334Z,14.90
2022-08-28T16:04:51.606Z,15.60
2022-08-28T16:07:21.063Z,15.65
2022-08-28T16:09:49.227Z,19.15
2022-08-28T16:12:16.732Z,20.65
2022-08-28T16:14:44.469Z,17.80
2022-08-28T16:17:12.410Z,19.67
2022-08-28T16:19:40.774Z,20.70
2022-08-28T16:22:10.423Z,21.35
2022-08-28T16:24:38.385Z,22.65
2022-08-28T16:27:09.500Z,20.10
2022-08-28T16:29:39.792Z,18.30
2022-08-28T16:32:08.616Z,20.65
2022-08-28T16:34:39.902Z,19.75
2022-08-28T16:37:07.969Z,19.83
2022-08-28T16:39:36.642Z,20.13
2022-08-28T16:42:04.639Z,22.17
2022-08-28T16:44:32.082Z,20.33
2022-08-28T16:46:59.742Z,23.55
2022-08-28T16:49:27.060Z,21.77
2022-08-28T16:51:54.560Z,26.52
2022-08-28T16:54:22.165Z,20.23
2022-08-28T16:56:49.645Z,23.42
2022-08-28T16:59:18.443Z,22.65
2022-08-28T17:01:46.649Z,22.60
2022-08-28T17:04:20.759Z,22.88
2022-08-28T17:06:48.129Z,23.67
2022-08-28T17:09:15.608Z,19.77
2022-08-28T17:11:43.383Z,17.92
2022-08-28T17:14:12.151Z,14.23
2022-08-28T17:16:39.786Z,14.43
2022-08-28T17:19:07.185Z,15.77
2022-08-28T17:21:53.308Z,16.35
2022-08-28T17:24:20.974Z,14.13
2022-08-28T17:26:48.311Z,14.25
2022-08-28T17:29:15.848Z,11.15
2022-08-28T17:31:43.899Z,12.10
2022-08-28T17:34:11.363Z,10.90
2022-08-28T17:36:42.487Z,14.38
2022-08-28T17:39:14.880Z,11.85
2022-08-28T17:41:42.426Z,9.38
2022-08-28T17:44:10.055Z,10.15
2022-08-28T17:46:38.312Z,15.32
2022-08-28T17:49:07.580Z,10.75
2022-08-28T17:51:43.304Z,12.85
2022-08-28T17:54:14.387Z,12.02
2022-08-28T17:59:11.518Z,11.55
2022-08-28T18:01:39.936Z,10.57
2022-08-28T18:04:07.852Z,12.18
2022-08-28T18:06:35.454Z,11.25
2022-08-28T18:09:04.207Z,10.85
2022-08-28T18:11:31.825Z,11.30
2022-08-28T18:14:02.495Z,13.52
2022-08-28T18:16:34.271Z,12.98
2022-08-28T18:19:02.685Z,15.75
2022-08-28T18:21:30.561Z,11.68
2022-08-28T18:23:58.195Z,19.05
2022-08-28T18:26:26.009Z,10.88
2022-08-28T18:28:53.542Z,15.15
2022-08-28T18:31:21.189Z,16.48
2022-08-28T18:33:48.944Z,14.77
2022-08-28T18:36:17.488Z,16.58
2022-08-28T18:38:45.422Z,14.40
2022-08-28T18:41:13.187Z,14.85
2022-08-28T18:43:40.770Z,15.98
2022-08-28T18:46:09.947Z,16.85
2022-08-28T18:48:38.183Z,14.32
2022-08-28T18:51:11.433Z,17.92
2022-08-28T18:53:42.376Z,19.95
2022-08-28T18:56:12.307Z,17.98
2022-08-28T18:58:41.442Z,13.32
2022-08-28T19:01:09.830Z,16.60
2022-08-28T19:03:38.143Z,16.40
2022-08-28T19:06:06.525Z,14.60
2022-08-28T19:08:36.853Z,14.45
2022-08-28T19:13:37.740Z,13.13
2022-08-28T19:16:06.017Z,10.20
2022-08-28T19:18:34.172Z,12.15
2022-08-28T19:21:16.266Z,8.65
2022-08-28T19:23:51.780Z,9.80
2022-08-28T19:26:26.661Z,10.45
2022-08-28T19:28:55.439Z,11.65
2022-08-28T19:31:27.355Z,13.98
2022-08-28T19:33:55.356Z,15.07
2022-08-28T19:36:23.456Z,11.15
2022-08-28T19:38:50.848Z,14.45
2022-08-28T19:41:18.266Z,8.60
2022-08-28T19:43:45.737Z,9.90
2022-08-28T19:46:19.515Z,10.70
2022-08-28T19:48:49.994Z,10.13
2022-08-28T19:51:22.476Z,7.97
2022-08-28T19:53:59.047Z,11.05
2022-08-28T19:56:28.641Z,7.72
2022-08-28T19:59:01.869Z,6.93
2022-08-28T20:01:33.594Z,10.55
2022-08-28T20:04:01.218Z,8.10
2022-08-28T20:06:32.084Z,9.52
2022-08-28T20:09:00.569Z,9.35
2022-08-28T20:11:30.440Z,10.30
2022-08-28T20:16:37.217Z,11.07
2022-08-28T20:19:08.149Z,11.00
2022-08-28T20:21:39.067Z,11.57
2022-08-28T20:24:11.135Z,9.82
2022-08-28T20:26:38.949Z,14.68
2022-08-28T20:29:08.686Z,9.93
2022-08-28T20:31:40.621Z,8.82
2022-08-28T20:34:10.441Z,10.80
2022-08-28T20:36:38.618Z,10.30
2022-08-28T20:39:09.304Z,12.35
2022-08-28T20:41:40.374Z,10.70
2022-08-28T20:44:11.793Z,10.48
2022-08-28T20:46:42.212Z,9.40
2022-08-28T20:49:12.490Z,9.68
2022-08-28T20:51:56.483Z,8.93
2022-08-28T20:54:32.030Z,11.38
2022-08-28T20:57:03.753Z,11.68
2022-08-28T20:59:37.245Z,13.40
2022-08-28T21:02:13.675Z,9.82
2022-08-28T21:04:42.428Z,10.50
2022-08-28T21:07:10.843Z,8.90
2022-08-28T21:10:06.180Z,11.63
2022-08-28T21:12:26.430Z,10.27
2022-08-28T21:14:54.086Z,12.40
2022-08-28T21:17:30.250Z,9.80
2022-08-28T21:20:07.091Z,12.20
2022-08-28T21:22:35.943Z,11.43
2022-08-28T21:25:07.413Z,10.82
2022-08-28T21:27:36.466Z,13.02
2022-08-28T21:30:07.260Z,12.95
2022-08-28T21:32:36.359Z,14.00
2022-08-28T21:35:07.786Z,16.02
2022-08-28T21:37:35.648Z,14.10
2022-08-28T21:40:05.083Z,16.63
2022-08-28T21:42:32.680Z,18.27
2022-08-28T21:45:00.613Z,15.50
2022-08-28T21:47:28.397Z,24.67
2022-08-28T21:49:57.716Z,21.98
2022-08-28T21:52:29.851Z,23.00
2022-08-28T21:55:06.750Z,19.98
2022-08-28T21:57:34.558Z,23.30
2022-08-28T22:00:01.936Z,27.20
2022-08-28T22:02:29.366Z,23.60
2022-08-28T22:04:56.710Z,25.10
2022-08-28T22:07:24.077Z,22.83
2022-08-28T22:09:51.929Z,24.75
2022-08-28T22:12:19.522Z,26.17
2022-08-28T22:14:46.991Z,24.92
2022-08-28T22:17:15.221Z,25.83
2022-08-28T22:19:42.666Z,28.15
2022-08-28T22:22:33.834Z,30.08
2022-08-28T22:25:01.297Z,32.10
2022-08-28T22:27:28.891Z,32.03
2022-08-28T22:29:56.588Z,30.13
2022-08-28T22:32:26.883Z,28.42
2022-08-28T22:34:55.387Z,25.95
2022-08-28T22:37:23.444Z,26.73
2022-08-28T22:39:50.824Z,28.75
2022-08-28T22:42:18.381Z,28.85
2022-08-28T22:44:47.047Z,45.00
2022-08-28T22:47:14.424Z,25.83
2022-08-28T22:49:41.758Z,31.15
2022-08-28T22:52:12.439Z,35.97
2022-08-28T22:54:39.772Z,41.70
2022-08-28T22:57:07.231Z,44.35
2022-08-28T22:59:35.272Z,40.17
2022-08-28T23:02:03.999Z,40.50
2022-08-28T23:04:31.508Z,36.38
2022-08-28T23:06:59.015Z,40.13
2022-08-28T23:09:26.489Z,43.70
2022-08-28T23:11:53.874Z,52.20
2022-08-28T23:14:21.293Z,43.17
2022-08-28T23:16:49.282Z,51.88
2022-08-28T23:19:17.954Z,51.90
2022-08-28T23:21:45.349Z,44.85
2022-08-28T23:24:16.474Z,47.78
2022-08-28T23:26:45.605Z,47.45
2022-08-28T23:29:13.837Z,48.58
2022-08-28T23:31:41.725Z,45.45
2022-08-28T23:34:09.713Z,50.72
2022-08-28T23:36:39.520Z,45.67
2022-08-28T23:39:10.613Z,49.20
2022-08-28T23:41:38.046Z,53.47
2022-08-28T23:44:08.764Z,54.00
2022-08-28T23:46:41.073Z,46.53
2022-08-28T23:49:09.622Z,50.35
2022-08-28T23:51:37.038Z,42.70
2022-08-28T23:54:04.595Z,42.20
2022-08-28T23:56:33.736Z,44.28
2022-08-28T23:59:00.991Z,39.38
